РПИ Шымкент

Руководитель РПИ

Evgeny Vygornitsky*

Инструкторы РПИ
Evgeny Vygornitsky (Supervisor)
Vitaliy Alekseyev (Instructor)
Входит в состав
ЗЦ Центральная Азия

Диспетчеры РПИ

Диспетчер Рейтинг Допуски *

Аэропорты РПИ

ICAO Город Название Погода
UAII Шымкент Шымкент UAII 161818Z VRB01MPS 1800 R10/P2000 -SHRA BR BKN014 OVC043CB 08/08 Q1013 NOSIG RMK QFE724/0966